createdAt,value
2022-11-01T00:01:09.048Z,19.80
2022-11-01T00:03:40.278Z,21.75
2022-11-01T00:06:17.968Z,22.17
2022-11-01T00:08:49.337Z,19.65
2022-11-01T00:11:21.175Z,23.22
2022-11-01T00:13:53.181Z,20.15
2022-11-01T00:16:24.835Z,20.92
2022-11-01T00:18:57.220Z,20.55
2022-11-01T00:21:28.482Z,20.57
2022-11-01T00:23:59.907Z,19.95
2022-11-01T00:26:31.473Z,21.07
2022-11-01T00:29:03.180Z,19.55
2022-11-01T00:31:34.627Z,19.48
2022-11-01T00:34:09.207Z,18.52
2022-11-01T00:36:40.561Z,20.85
2022-11-01T00:39:16.204Z,19.95
2022-11-01T00:41:47.676Z,23.40
2022-11-01T00:44:18.886Z,24.57
2022-11-01T00:46:50.457Z,22.25
2022-11-01T00:49:21.783Z,23.35
2022-11-01T00:51:53.284Z,23.22
2022-11-01T00:54:25.152Z,23.47
2022-11-01T00:56:56.416Z,22.27
2022-11-01T00:59:27.891Z,21.27
2022-11-01T01:01:59.288Z,21.65
2022-11-01T01:04:30.718Z,21.05
2022-11-01T01:07:02.029Z,21.48
2022-11-01T01:09:34.129Z,21.82
2022-11-01T01:12:06.235Z,21.60
2022-11-01T01:14:37.742Z,22.37
2022-11-01T01:17:09.159Z,22.60
2022-11-01T01:19:40.619Z,19.95
2022-11-01T01:22:11.995Z,20.43
2022-11-01T01:24:44.997Z,18.65
2022-11-01T01:27:17.444Z,21.85
2022-11-01T01:29:48.784Z,19.62
2022-11-01T01:32:22.953Z,21.20
2022-11-01T01:34:54.241Z,18.37
2022-11-01T01:37:25.507Z,21.42
2022-11-01T01:39:56.798Z,21.37
2022-11-01T01:42:31.243Z,19.80
2022-11-01T01:45:25.260Z,20.52
2022-11-01T01:47:58.785Z,19.57
2022-11-01T01:50:33.123Z,22.50
2022-11-01T01:53:07.397Z,18.60
2022-11-01T01:55:42.882Z,18.95
2022-11-01T01:58:16.624Z,22.42
2022-11-01T02:00:48.206Z,17.60
2022-11-01T02:03:20.384Z,18.25
2022-11-01T02:05:54.857Z,18.60
2022-11-01T02:08:28.241Z,18.32
2022-11-01T02:11:04.503Z,18.42
2022-11-01T02:13:36.387Z,16.75
2022-11-01T02:16:37.054Z,17.50
2022-11-01T02:19:38.713Z,17.50
2022-11-01T02:22:13.010Z,16.00
2022-11-01T02:24:57.699Z,17.50
2022-11-01T02:27:33.687Z,16.95
2022-11-01T02:30:13.918Z,20.20
2022-11-01T02:33:08.453Z,19.37
2022-11-01T02:35:50.943Z,19.50
2022-11-01T02:38:26.947Z,18.57
2022-11-01T02:41:04.286Z,20.48
2022-11-01T02:43:39.873Z,17.10
2022-11-01T02:46:29.967Z,18.85
2022-11-01T02:49:01.355Z,17.42
2022-11-01T02:51:35.106Z,18.67
2022-11-01T02:54:10.702Z,16.50
2022-11-01T02:56:42.491Z,16.67
2022-11-01T02:59:17.299Z,15.60
2022-11-01T03:01:52.054Z,16.48
2022-11-01T03:04:23.372Z,17.23
2022-11-01T03:06:57.975Z,17.50
2022-11-01T03:09:32.921Z,15.88
2022-11-01T03:12:07.953Z,14.20
2022-11-01T03:14:42.295Z,15.48
2022-11-01T03:17:16.554Z,14.23
2022-11-01T03:19:51.350Z,13.68
2022-11-01T03:22:25.650Z,16.52
2022-11-01T03:25:01.188Z,17.52
2022-11-01T03:27:35.474Z,13.98
2022-11-01T03:30:10.536Z,15.50
2022-11-01T03:32:45.151Z,15.10
2022-11-01T03:35:21.388Z,17.73
2022-11-01T03:37:55.871Z,14.40
2022-11-01T03:40:30.844Z,17.85
2022-11-01T03:43:04.964Z,18.30
2022-11-01T03:45:39.497Z,15.00
2022-11-01T03:48:11.198Z,17.60
2022-11-01T03:50:48.505Z,21.12
2022-11-01T03:53:19.958Z,15.20
2022-11-01T03:55:51.406Z,16.27
2022-11-01T03:58:22.935Z,15.72
2022-11-01T04:00:55.831Z,16.10
2022-11-01T04:03:27.235Z,17.77
2022-11-01T04:05:58.428Z,15.60
2022-11-01T04:08:29.789Z,14.55
2022-11-01T04:11:01.652Z,18.65
2022-11-01T04:13:33.191Z,16.65
2022-11-01T04:16:22.351Z,17.00
2022-11-01T04:19:12.699Z,16.60
2022-11-01T04:21:44.176Z,18.42
2022-11-01T04:24:17.733Z,17.60
2022-11-01T04:26:49.468Z,19.12
2022-11-01T04:29:20.896Z,18.30
2022-11-01T04:31:52.152Z,16.35
2022-11-01T04:34:42.752Z,17.90
2022-11-01T04:37:14.456Z,17.25
2022-11-01T04:39:45.869Z,16.82
2022-11-01T04:42:17.299Z,16.20
2022-11-01T04:44:49.481Z,15.75
2022-11-01T04:47:20.921Z,15.35
2022-11-01T04:49:52.214Z,15.60
2022-11-01T04:52:23.618Z,14.38
2022-11-01T04:54:55.362Z,15.58
2022-11-01T04:57:26.707Z,15.05
2022-11-01T04:59:58.340Z,13.98
2022-11-01T05:02:31.095Z,17.35
2022-11-01T05:05:02.316Z,14.00
2022-11-01T05:07:34.562Z,13.70
2022-11-01T05:10:08.049Z,16.80
2022-11-01T05:12:39.454Z,14.03
2022-11-01T05:15:11.508Z,12.40
2022-11-01T05:17:43.930Z,14.38
2022-11-01T05:20:15.440Z,13.15
2022-11-01T05:22:46.635Z,14.65
2022-11-01T05:25:18.309Z,18.00
2022-11-01T05:27:49.290Z,14.38
2022-11-01T05:30:20.736Z,13.20
2022-11-01T05:32:53.112Z,13.68
2022-11-01T05:35:24.527Z,13.55
2022-11-01T05:37:56.512Z,15.65
2022-11-01T05:40:27.915Z,12.50
2022-11-01T05:42:59.717Z,12.60
2022-11-01T05:45:31.148Z,14.35
2022-11-01T05:48:05.278Z,15.50
2022-11-01T05:50:36.634Z,13.38
2022-11-01T05:53:08.946Z,14.10
2022-11-01T05:55:40.495Z,11.70
2022-11-01T05:58:11.768Z,12.78
2022-11-01T06:00:43.017Z,12.75
2022-11-01T06:03:14.365Z,12.07
2022-11-01T06:05:45.541Z,13.13
2022-11-01T06:08:16.859Z,13.85
2022-11-01T06:10:49.383Z,14.18
2022-11-01T06:13:20.780Z,11.03
2022-11-01T06:15:53.613Z,12.00
2022-11-01T06:18:24.912Z,13.65
2022-11-01T06:20:57.569Z,11.68
2022-11-01T06:23:28.820Z,12.05
2022-11-01T06:26:04.077Z,10.78
2022-11-01T06:28:35.670Z,11.28
2022-11-01T06:31:07.457Z,11.45
2022-11-01T06:33:38.733Z,13.75
2022-11-01T06:36:10.600Z,11.40
2022-11-01T06:38:42.097Z,11.38
2022-11-01T06:41:13.051Z,10.23
2022-11-01T06:43:44.400Z,11.45
2022-11-01T06:46:15.738Z,14.10
2022-11-01T06:48:49.444Z,11.20
2022-11-01T06:51:20.749Z,12.95
2022-11-01T06:53:52.170Z,14.23
2022-11-01T06:56:23.397Z,13.15
2022-11-01T06:58:54.595Z,12.75
2022-11-01T07:01:29.868Z,12.25
2022-11-01T07:04:01.269Z,12.25
2022-11-01T07:06:32.637Z,11.95
2022-11-01T07:09:04.171Z,14.35
2022-11-01T07:11:35.680Z,13.38
2022-11-01T07:14:07.632Z,9.28
2022-11-01T07:16:39.744Z,10.60
2022-11-01T07:19:10.902Z,11.18
2022-11-01T07:21:42.870Z,9.83
2022-11-01T07:24:14.199Z,12.03
2022-11-01T07:26:47.579Z,10.70
2022-11-01T07:29:20.654Z,13.88
2022-11-01T07:31:54.317Z,11.05
2022-11-01T07:34:25.544Z,12.95
2022-11-01T07:36:56.889Z,11.20
2022-11-01T07:39:35.720Z,9.40
2022-11-01T07:42:07.474Z,8.75
2022-11-01T07:44:38.774Z,8.78
2022-11-01T07:47:10.221Z,10.72
2022-11-01T07:49:41.391Z,8.98
2022-11-01T07:52:12.624Z,9.38
2022-11-01T07:54:44.029Z,9.35
2022-11-01T07:57:15.367Z,8.68
2022-11-01T07:59:47.009Z,8.53
2022-11-01T08:02:18.321Z,8.25
2022-11-01T08:04:49.503Z,6.95
2022-11-01T08:07:20.853Z,9.50
2022-11-01T08:09:52.179Z,7.42
2022-11-01T08:12:23.397Z,7.17
2022-11-01T08:14:54.651Z,7.08
2022-11-01T08:17:25.964Z,5.83
2022-11-01T08:19:57.455Z,7.75
2022-11-01T08:22:28.657Z,7.65
2022-11-01T08:24:59.893Z,8.18
2022-11-01T08:27:32.872Z,9.65
2022-11-01T08:30:04.121Z,10.60
2022-11-01T08:32:35.594Z,8.95
2022-11-01T08:35:08.730Z,9.68
2022-11-01T08:37:41.765Z,10.23
2022-11-01T08:40:16.709Z,8.40
2022-11-01T08:42:49.843Z,18.27
2022-11-01T08:45:21.242Z,7.72
2022-11-01T08:48:11.998Z,6.25
2022-11-01T08:50:43.386Z,9.08
2022-11-01T08:53:16.011Z,6.45
2022-11-01T08:58:19.493Z,6.12
2022-11-01T09:00:50.727Z,6.33
2022-11-01T09:03:22.010Z,6.72
2022-11-01T09:05:53.197Z,6.03
2022-11-01T09:08:24.693Z,5.72
2022-11-01T09:11:00.059Z,7.47
2022-11-01T09:13:31.512Z,7.08
2022-11-01T09:16:06.568Z,6.10
2022-11-01T09:18:38.186Z,5.47
2022-11-01T09:21:09.670Z,6.28
2022-11-01T09:23:41.057Z,5.17
2022-11-01T09:26:13.065Z,14.83
2022-11-01T09:28:44.377Z,6.97
2022-11-01T09:31:20.846Z,6.37
2022-11-01T09:33:50.100Z,6.28
2022-11-01T09:36:21.340Z,6.75
2022-11-01T09:38:53.119Z,6.30
2022-11-01T09:41:33.223Z,6.03
2022-11-01T09:44:07.382Z,6.70
2022-11-01T09:46:42.498Z,5.37
2022-11-01T09:49:40.864Z,4.65
2022-11-01T09:52:14.546Z,4.67
2022-11-01T09:54:46.725Z,4.85
2022-11-01T09:57:22.661Z,4.33
2022-11-01T10:00:00.624Z,4.10
2022-11-01T10:02:43.121Z,4.10
2022-11-01T10:05:20.804Z,4.15
2022-11-01T10:07:57.074Z,3.72
2022-11-01T10:10:36.780Z,3.72
2022-11-01T10:13:25.051Z,4.62
2022-11-01T10:16:01.685Z,4.42
2022-11-01T10:18:37.697Z,4.53
2022-11-01T10:21:13.672Z,4.97
2022-11-01T10:23:47.755Z,3.75
2022-11-01T10:26:22.166Z,4.45
2022-11-01T10:28:57.814Z,4.37
2022-11-01T10:31:29.806Z,4.65
2022-11-01T10:34:04.220Z,3.45
2022-11-01T10:41:51.237Z,3.37
2022-11-01T10:44:26.940Z,2.92
2022-11-01T10:47:01.206Z,3.72
2022-11-01T10:52:15.017Z,4.67
2022-11-01T10:54:55.051Z,3.98
2022-11-01T10:57:32.963Z,4.95
2022-11-01T11:00:08.379Z,4.08
2022-11-01T11:02:43.751Z,4.83
2022-11-01T11:05:25.417Z,2.45
2022-11-01T11:07:57.683Z,4.08
2022-11-01T11:10:30.693Z,3.85
2022-11-01T11:13:04.872Z,2.72
2022-11-01T11:23:18.665Z,2.77
2022-11-01T11:25:55.427Z,3.85
2022-11-01T11:28:31.198Z,2.72
2022-11-01T11:32:02.707Z,4.35
2022-11-01T11:48:14.243Z,2.80
2022-11-01T11:50:51.258Z,2.25
2022-11-01T11:53:24.622Z,2.70
2022-11-01T12:00:01.756Z,2.50
2022-11-01T12:03:09.102Z,2.77
2022-11-01T12:06:23.990Z,2.72
2022-11-01T12:09:36.814Z,2.12
2022-11-01T12:12:27.521Z,3.17
2022-11-01T12:15:30.505Z,2.62
2022-11-01T12:22:05.665Z,3.33
2022-11-01T12:39:52.683Z,2.15
2022-11-01T12:42:42.550Z,6.58
2022-11-01T12:45:17.023Z,2.83
2022-11-01T12:47:51.426Z,2.20
2022-11-01T12:50:26.039Z,3.87
2022-11-01T12:53:00.884Z,2.62
2022-11-01T12:55:35.629Z,1.92
2022-11-01T12:58:13.314Z,2.77
2022-11-01T13:00:53.503Z,3.62
2022-11-01T13:03:31.280Z,2.83
2022-11-01T13:06:06.511Z,3.65
2022-11-01T13:08:42.403Z,2.25
2022-11-01T13:11:17.581Z,3.02
2022-11-01T13:13:52.347Z,3.22
2022-11-01T13:16:41.926Z,3.45
2022-11-01T13:19:17.784Z,2.72
2022-11-01T13:36:28.692Z,3.67
2022-11-01T13:39:02.193Z,2.33
2022-11-01T13:41:37.315Z,2.52
2022-11-01T13:44:13.288Z,2.45
2022-11-01T13:47:16.497Z,2.67
2022-11-01T13:50:08.122Z,2.65
2022-11-01T13:52:43.444Z,3.05
2022-11-01T13:55:20.422Z,4.58
2022-11-01T13:57:53.620Z,2.80
2022-11-01T14:00:43.618Z,2.80
2022-11-01T14:03:29.603Z,4.00
2022-11-01T14:09:30.920Z,2.52
2022-11-01T14:12:21.562Z,3.12
2022-11-01T14:14:54.343Z,7.37
2022-11-01T14:20:51.150Z,2.77
2022-11-01T15:59:42.289Z,6.80
2022-11-01T16:02:18.866Z,5.60
2022-11-01T16:05:06.543Z,4.70
2022-11-01T16:07:39.910Z,4.45
2022-11-01T16:10:23.753Z,4.40
2022-11-01T16:13:03.377Z,5.53
2022-11-01T16:15:37.520Z,7.17
2022-11-01T16:18:18.252Z,4.20
2022-11-01T16:20:51.758Z,5.78
2022-11-01T16:23:29.698Z,6.70
2022-11-01T16:38:28.778Z,5.50
2022-11-01T17:04:45.908Z,7.00
2022-11-01T17:20:53.781Z,5.50
2022-11-01T17:33:36.303Z,6.30
2022-11-01T17:36:12.157Z,7.40
2022-11-01T17:38:45.977Z,7.20
2022-11-01T17:41:21.042Z,8.60
2022-11-01T17:43:52.389Z,6.03
2022-11-01T17:46:26.705Z,7.33
2022-11-01T17:48:57.926Z,6.42
2022-11-01T17:51:29.331Z,7.12
2022-11-01T17:54:00.684Z,5.72
2022-11-01T17:56:31.903Z,6.80
2022-11-01T17:59:03.293Z,6.87
2022-11-01T18:01:34.650Z,7.33
2022-11-01T18:04:06.903Z,6.50
2022-11-01T18:06:40.341Z,7.00
2022-11-01T18:09:18.759Z,7.72
2022-11-01T18:11:53.823Z,7.45
2022-11-01T18:14:30.895Z,6.95
2022-11-01T18:17:06.320Z,6.58
2022-11-01T18:19:48.866Z,6.53
2022-11-01T18:22:27.515Z,6.03
2022-11-01T18:25:04.196Z,6.90
2022-11-01T18:27:38.612Z,5.85
2022-11-01T18:30:17.522Z,8.38
2022-11-01T18:32:52.886Z,6.75
2022-11-01T18:35:32.101Z,6.85
2022-11-01T18:38:17.929Z,6.58
2022-11-01T18:40:59.367Z,6.92
2022-11-01T18:43:37.884Z,8.78
2022-11-01T18:46:25.736Z,9.23
2022-11-01T18:49:00.596Z,7.62
2022-11-01T18:51:34.938Z,10.15
2022-11-01T18:54:27.872Z,8.48
2022-11-01T18:57:04.282Z,7.92
2022-11-01T18:59:38.779Z,8.25
2022-11-01T19:02:17.486Z,9.98
2022-11-01T19:04:51.591Z,9.75
2022-11-01T19:07:24.907Z,9.45
2022-11-01T19:09:57.599Z,7.60
2022-11-01T19:12:32.785Z,8.53
2022-11-01T19:15:10.049Z,8.70
2022-11-01T19:17:47.914Z,8.30
2022-11-01T19:20:23.930Z,7.95
2022-11-01T19:23:00.017Z,8.58
2022-11-01T19:25:34.103Z,7.33
2022-11-01T19:28:13.315Z,8.33
2022-11-01T19:30:55.477Z,9.00
2022-11-01T19:33:34.557Z,8.30
2022-11-01T19:36:09.831Z,6.40
2022-11-01T19:38:45.043Z,7.60
2022-11-01T19:41:19.913Z,7.72
2022-11-01T19:43:54.794Z,8.05
2022-11-01T19:46:27.533Z,7.12
2022-11-01T19:48:59.940Z,7.03
2022-11-01T19:51:32.182Z,5.75
2022-11-01T19:54:07.909Z,6.53
2022-11-01T19:56:39.463Z,7.58
2022-11-01T19:59:32.932Z,6.85
2022-11-01T20:02:13.118Z,9.98
2022-11-01T20:04:45.670Z,7.58
2022-11-01T20:07:20.631Z,8.95
2022-11-01T20:09:58.481Z,8.08
2022-11-01T20:13:02.407Z,8.73
2022-11-01T20:15:34.316Z,10.32
2022-11-01T20:18:07.647Z,9.63
2022-11-01T20:20:42.273Z,12.00
2022-11-01T20:23:32.613Z,10.72
2022-11-01T20:25:53.199Z,12.05
2022-11-01T20:28:29.797Z,9.80
2022-11-01T20:31:03.506Z,9.30
2022-11-01T20:33:37.980Z,9.25
2022-11-01T20:36:11.520Z,9.28
2022-11-01T20:38:44.061Z,8.30
2022-11-01T20:41:16.772Z,8.05
2022-11-01T20:43:49.558Z,7.70
2022-11-01T20:46:25.581Z,8.18
2022-11-01T20:48:59.344Z,7.60
2022-11-01T20:51:33.256Z,9.03
2022-11-01T20:54:05.860Z,8.68
2022-11-01T20:56:40.403Z,8.68
2022-11-01T20:59:15.801Z,7.05
2022-11-01T21:01:46.977Z,8.10
2022-11-01T21:04:25.044Z,8.30
2022-11-01T21:07:15.175Z,7.58
2022-11-01T21:09:51.475Z,9.08
2022-11-01T21:12:37.451Z,6.37
2022-11-01T21:15:30.300Z,7.72
2022-11-01T21:18:24.047Z,7.92
2022-11-01T21:21:00.010Z,6.47
2022-11-01T21:23:35.201Z,8.90
2022-11-01T21:26:15.098Z,7.00
2022-11-01T21:28:51.876Z,9.15
2022-11-01T21:31:31.061Z,7.60
2022-11-01T21:34:05.130Z,9.30
2022-11-01T21:36:41.608Z,8.80
2022-11-01T21:39:15.960Z,8.88
2022-11-01T21:41:53.573Z,9.65
2022-11-01T21:44:29.780Z,9.18
2022-11-01T21:47:04.254Z,19.17
2022-11-01T21:49:36.619Z,8.98
2022-11-01T21:54:43.502Z,7.53
2022-11-01T21:57:16.431Z,8.73
2022-11-01T21:59:47.798Z,8.65
2022-11-01T22:02:19.169Z,8.75
2022-11-01T22:04:50.540Z,9.08
2022-11-01T22:07:22.626Z,9.28
2022-11-01T22:09:54.164Z,8.30
2022-11-01T22:12:25.664Z,8.55
2022-11-01T22:14:58.192Z,9.53
2022-11-01T22:17:29.539Z,7.83
2022-11-01T22:20:01.367Z,9.83
2022-11-01T22:22:32.609Z,8.20
2022-11-01T22:25:05.628Z,7.97
2022-11-01T22:27:37.145Z,8.35
2022-11-01T22:30:11.491Z,9.80
2022-11-01T22:32:43.150Z,8.38
2022-11-01T22:35:15.758Z,11.30
2022-11-01T22:37:48.634Z,9.68
2022-11-01T22:40:21.184Z,8.38
2022-11-01T22:42:56.791Z,8.75
2022-11-01T22:45:28.332Z,9.20
2022-11-01T22:48:01.683Z,9.33
2022-11-01T22:50:33.181Z,8.75
2022-11-01T22:53:07.085Z,8.65
2022-11-01T22:55:40.824Z,9.23
2022-11-01T22:58:29.369Z,8.33
2022-11-01T23:01:09.608Z,9.18
2022-11-01T23:03:48.835Z,11.13
2022-11-01T23:09:21.933Z,8.20
2022-11-01T23:12:13.523Z,9.15
2022-11-01T23:14:46.904Z,8.80
2022-11-01T23:17:25.084Z,12.00
2022-11-01T23:19:59.318Z,9.33
2022-11-01T23:22:34.634Z,10.30
2022-11-01T23:25:08.164Z,8.10
2022-11-01T23:27:42.083Z,10.10
2022-11-01T23:30:14.760Z,9.65
2022-11-01T23:32:46.143Z,9.73
2022-11-01T23:35:21.587Z,8.15
2022-11-01T23:37:54.856Z,7.60
2022-11-01T23:40:30.210Z,9.23
